Latest Weather Observations for Oakey

IDQ60801

Issued at 4:32 pm EST Monday 30 May 2016 (issued every 30 minutes, with the page automatically refreshed every 10 minutes)

About weather observations | Map of weather stations | Latest weather observations for QLD | Other Formats
Station Details ID: 041359 Name: OAKEY AERO Lat: -27.40 Lon: 151.74 Height: 405.69 m
Data from the previous 72 hours. | See also: Recent months at Oakey
Date/Time
EST
Temp
°C
App
Temp
°C
Dew
Point
Rel
Hum
%
Delta-T
°C
Wind Press
QNH
hPa
Press
MSL
hPa
Rain
since 9 am
mm
Dir
 
Spd
km/h
Gust
km/h
Spd
kts
Gust
kts
30/04:00pm 20.0 16.0 -5.8 17 10.3 WSW 7 11 4 6 1022.3 1021.7 0.0
30/03:30pm 20.3 16.0 -4.8 18 10.3 WNW 9 15 5 8 1022.3 1021.7 0.0
30/03:00pm 20.2 16.5 -4.8 18 10.2 W 6 11 3 6 1022.1 1021.5 0.0
30/02:30pm 20.1 16.5 -3.5 20 9.9 WNW 6 9 3 5 1022.1 1021.5 0.0
30/02:00pm 19.9 15.8 -3.0 21 9.7 W 9 11 5 6 1022.2 1021.6 0.0
30/01:30pm 19.4 15.8 -3.5 21 9.6 NW 6 9 3 5 1022.2 1021.6 0.0
30/01:00pm 18.9 14.4 -3.3 22 9.2 W 11 19 6 10 1022.5 1021.9 0.0
30/12:30pm 18.0 14.4 -1.8 26 8.5 SW 7 13 4 7 1022.8 1022.2 0.0
30/12:00pm 18.7 15.5 -0.7 27 8.5 NW 6 11 3 6 1023.5 1022.8 0.0
30/11:30am 17.6 14.3 0.3 31 7.7 NNW 7 13 4 7 1023.7 1023.0 0.0
30/11:00am 16.4 13.5 1.7 37 6.6 NE 6 15 3 8 1024.2 1023.6 0.0
30/10:30am 14.6 12.1 3.7 48 5.1 W 6 7 3 4 1024.6 1024.0 0.0
30/10:00am 12.4 9.8 4.4 58 3.7 S 7 9 4 5 1024.8 1024.2 0.0
30/09:30am 10.2 7.8 4.4 67 2.6 NE 6 9 3 5 1025.0 1024.4 0.0
30/09:00am 8.5 6.9 4.3 75 1.9 N 2 6 1 3 1024.8 1024.2 0.0
30/08:30am 6.0 3.3 3.5 84 1.1 NNE 7 11 4 6 1024.6 1024.0 0.0
30/08:00am 4.6 3.0 2.6 87 0.8 CALM 0 0 0 0 1024.3 1023.7 0.0
30/07:30am 1.2 -0.7 0.6 96 0.2 CALM 0 0 0 0 1024.3 1023.7 0.0
30/07:00am -0.4 -3.9 -1.0 96 0.2 NNE 7 9 4 5 1023.8 1023.1 0.0
30/06:30am -1.5 -5.1 -2.3 94 0.2 SE 7 9 4 5 1023.1 1022.5 0.0
30/06:00am -1.7 -5.4 -2.7 93 0.3 ESE 7 11 4 6 1022.8 1022.2 0.0
30/05:30am -1.3 -5.3 -2.1 94 0.2 N 9 11 5 6 1022.6 1022.0 0.0
30/05:00am -1.4 -5.1 -2.5 92 0.3 E 7 9 4 5 1022.5 1021.9 0.0
30/04:30am -0.8 -4.4 -1.8 93 0.3 NNE 7 7 4 4 1022.3 1021.7 0.0
30/04:00am -0.6 -2.8 -1.6 93 0.3 CALM 0 6 0 3 1021.9 1021.2 0.0
30/03:30am -0.7 -4.3 -1.8 92 0.4 NE 7 7 4 4 1021.8 1021.1 0.0
30/03:00am -0.3 -4.2 -1.4 92 0.4 NE 9 11 5 6 1021.8 1021.1 0.0
30/02:30am 0.6 -3.2 -0.5 92 0.4 SSE 9 11 5 6 1021.7 1021.0 0.0
30/02:00am 0.4 -3.0 -0.9 91 0.5 SE 7 9 4 5 1021.8 1021.1 0.0
30/01:30am 0.7 -2.5 -0.7 90 0.5 ESE 6 7 3 4 1021.8 1021.1 0.0
30/01:00am 1.9 -1.2 0.4 90 0.6 NNE 6 7 3 4 1021.7 1021.0 0.0
30/12:30am 1.8 -1.3 0.0 88 0.7 NNE 6 7 3 4 1021.8 1021.1 0.0
30/12:00am 2.2 -0.9 0.3 87 0.7 NE 6 7 3 4 1021.8 1021.1 0.0
 
Date/Time
EST
Temp
°C
App
Temp
°C
Dew
Point
Rel
Hum
%
Delta-T
°C
Wind Press
QNH
hPa
Press
MSL
hPa
Rain
since 9 am
mm
Dir
 
Spd
km/h
Gust
km/h
Spd
kts
Gust
kts
29/11:30pm 2.7 -0.3 0.8 87 0.7 NE 6 9 3 5 1022.1 1021.5 0.0
29/11:00pm 3.6 0.8 1.8 88 0.7 NE 6 7 3 4 1022.3 1021.7 0.0
29/10:30pm 4.1 1.0 1.3 82 1.1 NE 7 9 4 5 1022.2 1021.6 0.0
29/10:00pm 4.0 0.9 1.2 82 1.1 NNE 7 11 4 6 1022.2 1021.6 0.0
29/09:30pm 4.8 1.7 1.3 78 1.4 NNE 7 9 4 5 1022.3 1021.7 0.0
29/09:00pm 6.9 3.2 2.4 73 1.9 S 11 13 6 7 1022.1 1021.5 0.0
29/08:30pm 8.7 4.3 2.7 66 2.6 SSW 15 19 8 10 1021.8 1021.1 0.0
29/08:00pm 10.3 6.4 3.3 62 3.1 SW 13 17 7 9 1021.6 1020.9 0.0
29/07:30pm 10.6 5.9 3.4 61 3.2 SW 17 20 9 11 1021.3 1020.6 0.0
29/07:00pm 9.8 4.7 3.1 63 2.9 WSW 19 22 10 12 1021.0 1020.3 0.0
29/06:30pm 11.5 6.8 3.3 57 3.7 WSW 17 19 9 10 1020.5 1019.9 0.0
29/06:00pm 11.3 6.2 2.9 56 3.7 WSW 19 20 10 11 1020.0 1019.4 0.0
29/05:30pm 12.0 7.2 2.5 52 4.2 W 17 19 9 10 1019.6 1018.9 0.0
29/05:00pm 15.0 9.6 2.2 42 5.8 WSW 20 22 11 12 1019.3 1018.6 0.0
29/04:30pm 16.8 11.2 1.3 35 7.0 WSW 20 26 11 14 1018.9 1018.2 0.0
29/04:00pm 17.6 11.7 2.0 35 7.2 SW 22 30 12 16 1018.7 1018.0 0.0
29/03:30pm 17.8 12.0 2.2 35 7.2 WSW 22 30 12 16 1018.4 1017.7 0.0
29/03:00pm 17.4 11.2 2.2 36 7.0 WSW 24 32 13 17 1018.3 1017.6 0.0
29/02:30pm 17.7 11.5 2.1 35 7.2 W 24 32 13 17 1018.4 1017.7 0.0
29/02:00pm 17.8 11.3 2.9 37 7.0 WSW 26 32 14 17 1018.4 1017.7 0.0
29/01:30pm 17.0 10.9 3.0 39 6.6 WSW 24 35 13 19 1018.3 1017.6 0.0
29/01:00pm 17.1 10.8 3.8 41 6.3 WSW 26 32 14 17 1018.6 1017.9 0.0
29/12:30pm 16.0 10.0 3.4 43 5.9 WSW 24 32 13 17 1018.8 1018.1 0.0
29/12:00pm 15.1 9.1 3.3 45 5.5 WSW 24 32 13 17 1019.3 1018.6 0.0
29/11:30am 15.7 9.8 3.8 45 5.6 WSW 24 32 13 17 1019.6 1018.9 0.0
29/11:00am 14.5 9.3 3.3 47 5.2 WSW 20 28 11 15 1019.9 1019.3 0.0
29/10:30am 14.0 9.4 3.8 50 4.7 SW 17 24 9 13 1020.3 1019.7 0.0
29/10:00am 13.0 7.5 1.7 46 5.0 SW 20 28 11 15 1020.4 1019.8 0.0
29/09:30am 12.5 6.8 2.7 51 4.4 SW 22 28 12 15 1020.5 1019.9 0.0
29/09:00am 10.4 6.7 4.3 66 2.8 WSW 13 20 7 11 1020.6 1020.0 0.0
29/08:30am 8.2 5.3 4.6 78 1.6 W 9 13 5 7 1020.5 1019.9 0.0
29/08:00am 5.7 3.0 3.5 86 0.9 WNW 7 11 4 6 1020.4 1019.8 0.0
29/07:30am 3.5 1.8 1.9 89 0.6 CALM 0 7 0 4 1020.0 1019.4 0.0
29/07:00am 1.0 -1.0 -0.1 92 0.4 CALM 0 0 0 0 1019.7 1019.0 0.0
29/06:30am 0.4 -1.7 -1.0 90 0.5 CALM 0 0 0 0 1019.4 1018.7 0.0
29/06:00am 0.6 -1.5 -0.8 90 0.5 CALM 0 0 0 0 1019.2 1018.5 0.0
29/05:30am 1.0 -1.1 -0.5 90 0.6 CALM 0 6 0 3 1019.0 1018.3 0.0
29/05:00am 2.3 0.5 1.1 92 0.5 CALM 0 0 0 0 1018.8 1018.1 0.0
29/04:30am 1.6 -1.7 0.0 89 0.6 N 7 11 4 6 1018.6 1017.9 0.0
29/04:00am 2.0 -1.7 0.1 87 0.7 NW 9 11 5 6 1018.6 1017.9 0.0
29/03:30am 3.5 0.7 2.2 91 0.5 N 6 7 3 4 1018.5 1017.8 0.0
29/03:00am 2.9 -0.7 0.6 85 0.9 WNW 9 9 5 5 1018.0 1017.4 0.0
29/02:30am 3.2 -1.1 0.8 84 0.9 W 13 15 7 8 1017.8 1017.2 0.0
29/02:00am 3.6 -0.7 0.7 81 1.1 W 13 15 7 8 1017.9 1017.3 0.0
29/01:30am 4.2 -0.8 1.2 81 1.2 W 17 17 9 9 1018.2 1017.5 0.0
29/01:00am 4.6 0.0 1.6 81 1.2 WNW 15 17 8 9 1017.9 1017.3 0.0
29/12:30am 4.4 0.1 1.1 79 1.3 WNW 13 15 7 8 1017.6 1016.9 0.0
29/12:00am 4.5 0.3 1.5 81 1.2 NW 13 15 7 8 1017.6 1016.9 0.0
 
Date/Time
EST
Temp
°C
App
Temp
°C
Dew
Point
Rel
Hum
%
Delta-T
°C
Wind Press
QNH
hPa
Press
MSL
hPa
Rain
since 9 am
mm
Dir
 
Spd
km/h
Gust
km/h
Spd
kts
Gust
kts
28/11:30pm 5.2 1.0 1.7 78 1.4 WSW 13 15 7 8 1017.4 1016.7 0.0
28/11:00pm 5.9 1.8 2.0 76 1.6 W 13 15 7 8 1017.6 1016.9 0.0
28/10:30pm 6.1 1.6 2.0 75 1.7 WSW 15 17 8 9 1017.5 1016.8 0.0
28/10:00pm 6.8 2.3 2.3 73 1.9 WSW 15 15 8 8 1017.6 1016.9 0.0
28/09:30pm 7.2 3.1 2.3 71 2.1 W 13 17 7 9 1017.4 1016.7 0.0
28/09:00pm 7.8 3.7 2.5 69 2.3 W 13 15 7 8 1017.3 1016.6 0.0
28/08:30pm 8.1 3.7 2.6 68 2.4 W 15 17 8 9 1017.3 1016.6 0.0
28/08:00pm 9.0 4.6 2.6 64 2.8 WSW 15 17 8 9 1017.0 1016.3 0.0
28/07:30pm 10.3 5.5 2.7 59 3.3 W 17 19 9 10 1016.5 1015.8 0.0
28/07:00pm 11.9 6.7 2.6 53 4.1 W 19 22 10 12 1016.2 1015.5 0.0
28/06:30pm 12.9 7.5 2.5 49 4.7 W 20 26 11 14 1015.9 1015.2 0.0
28/06:00pm 14.2 7.7 2.5 45 5.3 W 26 35 14 19 1015.2 1014.5 0.0
28/05:30pm 14.5 8.8 3.0 46 5.3 W 22 32 12 17 1014.7 1014.0 0.0
28/05:00pm 15.8 7.9 2.2 40 6.2 W 33 41 18 22 1014.3 1013.6 0.0
28/04:30pm 17.1 8.8 2.3 37 6.8 W 35 48 19 26 1013.9 1013.2 0.0
28/04:00pm 18.0 9.1 3.1 37 7.0 W 39 48 21 26 1013.5 1012.8 0.0
28/03:30pm 17.9 8.9 2.2 35 7.3 W 39 50 21 27 1013.0 1012.2 0.0
28/03:03pm 18.7 10.2 2.9 35 7.5 W 37 56 20 30 1012.6 1011.9 0.0
28/03:00pm 18.8 11.0 3.0 35 7.5 W 33 43 18 23 1012.6 1011.9 0.0
28/02:30pm 18.7 10.2 3.3 36 7.4 W 37 48 20 26 1012.6 1011.9 0.0
28/02:18pm 18.7 9.8 3.3 36 7.4 W 39 57 21 31 1012.6 1011.9 0.0
28/02:00pm 18.6 9.4 3.6 37 7.2 W 41 50 22 27 1012.5 1011.8 0.0
28/01:38pm 19.3 11.0 4.3 37 7.3 WSW 37 57 20 31 1012.5 1011.8 0.0
28/01:30pm 17.9 8.8 4.1 40 6.7 W 41 54 22 29 1012.7 1012.0 0.0
28/01:00pm 18.7 10.9 4.8 40 6.8 W 35 52 19 28 1012.8 1012.1 0.0
28/12:30pm 17.5 8.8 4.1 41 6.4 W 39 50 21 27 1013.3 1012.5 0.0
28/12:00pm 18.1 9.7 3.9 39 6.8 W 37 50 20 27 1013.6 1012.9 0.0
28/11:30am 17.6 10.5 6.2 47 5.7 W 33 43 18 23 1014.0 1013.3 0.0
28/11:00am 16.4 9.3 6.5 52 5.0 W 33 50 18 27 1014.3 1013.6 0.0
28/10:30am 15.9 9.3 6.1 52 4.8 W 30 39 16 21 1014.6 1013.9 0.0
28/10:00am 15.7 10.4 7.0 56 4.4 W 24 32 13 17 1015.0 1014.3 0.0
28/09:30am 13.5 9.2 6.8 64 3.3 W 19 24 10 13 1015.4 1014.7 0.0
28/09:00am 11.9 8.4 7.2 73 2.3 WNW 15 19 8 10 1015.2 1014.5 0.0
28/08:30am 10.1 8.0 6.8 80 1.6 WNW 7 11 4 6 1015.2 1014.5 0.0
28/08:00am 8.5 7.7 6.5 87 0.9 CALM 0 0 0 0 1015.1 1014.4 0.0
28/07:30am 6.4 5.4 5.7 95 0.3 CALM 0 0 0 0 1014.7 1014.0 0.0
28/07:00am 4.9 1.9 4.2 95 0.3 W 9 11 5 6 1014.4 1013.7 0.0
28/06:30am 4.5 1.0 3.6 94 0.4 W 11 13 6 7 1014.1 1013.4 0.0
28/06:00am 4.8 2.1 3.9 94 0.4 W 7 9 4 5 1013.8 1013.1 0.0
28/05:30am 5.0 1.9 3.8 92 0.5 WSW 9 11 5 6 1013.8 1013.1 0.0
28/05:00am 5.4 1.7 4.5 94 0.4 NNW 13 15 7 8 1013.9 1013.2 0.0
28/04:30am 5.3 1.6 4.3 93 0.4 NNW 13 15 7 8 1013.7 1013.0 0.0
28/04:00am 5.5 2.8 3.7 88 0.8 NW 7 9 4 5 1013.6 1012.9 0.0
28/03:30am 6.0 2.7 4.5 90 0.7 WNW 11 13 6 7 1013.7 1013.0 0.0
28/03:00am 5.9 2.9 4.2 89 0.7 WNW 9 11 5 6 1013.7 1013.0 0.0
28/02:30am 6.2 2.5 4.5 89 0.8 WNW 13 15 7 8 1013.5 1012.8 0.0
28/02:00am 7.1 4.3 5.3 88 0.8 WNW 9 11 5 6 1013.8 1013.1 0.0
28/01:30am 7.2 4.1 5.7 90 0.7 WNW 11 13 6 7 1013.9 1013.2 0.0
28/01:00am 7.0 3.8 5.0 87 0.9 W 11 13 6 7 1014.1 1013.4 0.0
28/12:30am 7.2 4.4 5.3 88 0.9 WNW 9 13 5 7 1013.6 1012.9 0.0
28/12:00am 7.3 3.8 5.4 88 0.9 NW 13 15 7 8 1013.9 1013.2 0.0
 
Date/Time
EST
Temp
°C
App
Temp
°C
Dew
Point
Rel
Hum
%
Delta-T
°C
Wind Press
QNH
hPa
Press
MSL
hPa
Rain
since 9 am
mm
Dir
 
Spd
km/h
Gust
km/h
Spd
kts
Gust
kts
27/11:30pm 7.8 4.4 5.8 87 0.9 WNW 13 13 7 7 1013.8 1013.1 0.0
27/11:00pm 8.5 5.5 5.8 83 1.3 W 11 13 6 7 1013.9 1013.2 0.0
27/10:30pm 9.5 6.5 5.9 78 1.7 WSW 11 13 6 7 1013.9 1013.2 0.0
27/10:00pm 10.3 7.8 6.6 78 1.8 W 9 13 5 7 1014.2 1013.5 0.0
27/09:30pm 11.7 8.4 6.6 71 2.5 WSW 13 19 7 10 1013.9 1013.2 0.0
27/09:00pm 12.5 9.1 7.8 73 2.4 SW 15 19 8 10 1013.5 1012.8 0.0
27/08:30pm 13.3 9.3 8.2 71 2.6 WSW 19 22 10 12 1013.6 1012.9 0.0
27/08:00pm 14.1 10.0 8.7 70 2.8 WSW 20 26 11 14 1013.4 1012.6 0.0
27/07:30pm 14.1 9.7 8.9 71 2.7 WSW 22 26 12 14 1013.2 1012.4 0.0
27/07:00pm 14.7 10.7 8.9 68 3.0 WSW 20 26 11 14 1012.8 1012.1 0.0
27/06:30pm 14.9 10.1 8.8 67 3.2 WSW 24 33 13 18 1012.2 1011.5 0.0
27/06:00pm 15.4 11.1 9.3 67 3.2 WSW 22 32 12 17 1011.7 1011.0 0.0
27/05:30pm 16.0 11.4 9.7 66 3.4 SW 24 32 13 17 1011.3 1010.6 0.0
27/05:00pm 16.9 11.9 9.6 62 3.9 SW 26 35 14 19 1011.0 1010.2 0.0

Other Formats:

Comma delimited format used in spreadsheet applications
http://www.bom.gov.au/fwo/IDQ60801/IDQ60801.94552.axf

JavaScript Object Notation format (JSON) in row-major order
http://www.bom.gov.au/fwo/IDQ60801/IDQ60801.94552.json